Time;durP1;ratioP1;P1;durP2;ratioP2;P2;SDS_P1;SDS_P2;PMS_P1;PMS_P2;Temp;Humidity;BMP_temperature;BMP_pressure;BME280_temperature;BME280_humidity;BME280_pressure;Samples;Min_cycle;Max_cycle;Signal;HPM_P1;HPM_P2
2022/07/07 00:02:13;;;;;;;;;;;22.80;48.60;;;;;;5053770;28;19986;-61
2022/07/07 00:04:40;;;;;;;;;;;22.80;48.70;;;;;;5058481;28;19974;-60
2022/07/07 00:07:06;;;;;;;;;;;22.80;48.70;;;;;;5055610;28;19920;-61
2022/07/07 00:09:34;;;;;;;;;;;22.80;48.80;;;;;;5074686;28;19960;-59
2022/07/07 00:12:01;;;;;;;;;;;22.70;48.80;;;;;;5066438;28;19927;-60
2022/07/07 00:14:28;;;;;;;;;;;22.70;49.10;;;;;;5050684;28;19954;-61
2022/07/07 00:16:54;;;;;;;;;;;22.70;48.90;;;;;;5072327;28;19970;-61
2022/07/07 00:19:21;;;;;;;;;;;22.70;48.90;;;;;;5075620;28;19966;-60
2022/07/07 00:21:48;;;;;;;;;;;22.70;48.90;;;;;;5072281;28;19924;-61
2022/07/07 00:24:15;;;;;;;;;;;22.70;49.00;;;;;;5074263;28;19928;-60
2022/07/07 00:26:43;;;;;;;;;;;22.70;49.00;;;;;;5052575;28;19925;-60
2022/07/07 00:29:09;;;;;;;;;;;22.80;49.20;;;;;;5054690;28;20364;-61
2022/07/07 00:31:36;;;;;;;;;;;22.70;49.20;;;;;;5055429;28;20354;-60
2022/07/07 00:34:03;;;;;;;;;;;22.80;49.20;;;;;;5074244;28;19925;-60
2022/07/07 00:36:29;;;;;;;;;;;22.70;49.20;;;;;;5055674;28;20338;-60
2022/07/07 00:38:56;;;;;;;;;;;22.80;49.30;;;;;;5057327;28;19920;-61
2022/07/07 00:41:23;;;;;;;;;;;22.70;49.30;;;;;;5054122;28;19928;-61
2022/07/07 00:43:51;;;;;;;;;;;22.70;49.30;;;;;;5037502;28;19921;-61
2022/07/07 00:46:18;;;;;;;;;;;22.70;49.30;;;;;;5038088;28;19920;-59
2022/07/07 00:48:45;;;;;;;;;;;22.80;49.50;;;;;;5055085;28;19920;-61
2022/07/07 00:51:12;;;;;;;;;;;22.70;49.40;;;;;;5060592;28;19947;-60
2022/07/07 00:53:49;;;;;;;;;;;22.70;49.40;;;;;;5071910;28;19920;-61
2022/07/07 00:56:16;;;;;;;;;;;22.70;49.50;;;;;;5046090;28;19971;-59
2022/07/07 00:58:42;;;;;;;;;;;22.80;49.60;;;;;;5054894;28;19921;-60
2022/07/07 01:01:17;;;;;;;;;;;22.70;49.60;;;;;;5061286;28;20273;-60
2022/07/07 01:03:44;;;;;;;;;;;22.70;49.70;;;;;;5074869;28;19964;-60
2022/07/07 01:06:10;;;;;;;;;;;22.70;49.70;;;;;;5064248;28;19936;-60
2022/07/07 01:08:37;;;;;;;;;;;22.70;49.80;;;;;;5053193;28;19920;-59
2022/07/07 01:11:04;;;;;;;;;;;22.70;49.80;;;;;;5057982;28;19920;-61
2022/07/07 01:13:31;;;;;;;;;;;22.70;49.90;;;;;;5073278;28;19926;-60
2022/07/07 01:15:57;;;;;;;;;;;22.70;49.90;;;;;;5072776;28;19938;-60
2022/07/07 01:18:26;;;;;;;;;;;22.70;50.00;;;;;;5071148;28;19920;-60
2022/07/07 01:20:52;;;;;;;;;;;22.70;50.00;;;;;;5053977;28;19927;-60
2022/07/07 01:23:20;;;;;;;;;;;22.70;50.00;;;;;;5073996;28;19958;-59
2022/07/07 01:25:47;;;;;;;;;;;22.70;50.10;;;;;;5054180;28;19924;-61
2022/07/07 01:28:16;;;;;;;;;;;22.70;50.10;;;;;;5056282;28;20376;-61
2022/07/07 01:30:42;;;;;;;;;;;22.70;50.70;;;;;;5072847;28;20365;-60
2022/07/07 01:33:09;;;;;;;;;;;22.70;50.20;;;;;;5056108;28;20292;-61
2022/07/07 01:35:36;;;;;;;;;;;22.70;50.30;;;;;;5052884;28;20034;-61
2022/07/07 01:38:03;;;;;;;;;;;22.70;50.30;;;;;;5054115;28;19920;-60
2022/07/07 01:40:40;;;;;;;;;;;22.70;50.30;;;;;;5068438;28;20426;-62
2022/07/07 01:43:07;;;;;;;;;;;22.70;50.40;;;;;;5074153;28;20322;-60
2022/07/07 01:45:33;;;;;;;;;;;22.70;50.40;;;;;;5060471;28;19925;-60
2022/07/07 01:48:00;;;;;;;;;;;22.70;50.50;;;;;;5052826;28;19967;-61
2022/07/07 01:50:27;;;;;;;;;;;22.70;50.50;;;;;;5052851;28;19932;-60
2022/07/07 01:52:54;;;;;;;;;;;22.70;50.60;;;;;;5054144;28;19995;-60
2022/07/07 01:55:20;;;;;;;;;;;22.70;50.60;;;;;;5069846;28;20316;-60
2022/07/07 01:57:48;;;;;;;;;;;22.70;50.60;;;;;;5056872;28;19920;-61
2022/07/07 02:00:16;;;;;;;;;;;22.70;50.70;;;;;;5054207;28;19985;-60
2022/07/07 02:02:42;;;;;;;;;;;22.70;50.70;;;;;;5074232;28;19920;-60
2022/07/07 02:05:28;;;;;;;;;;;22.70;50.80;;;;;;5071450;28;19942;-60
2022/07/07 02:08:13;;;;;;;;;;;22.70;50.80;;;;;;5073972;28;19943;-60
2022/07/07 02:11:13;;;;;;;;;;;22.70;50.90;;;;;;5071820;28;20388;-60
2022/07/07 02:13:42;;;;;;;;;;;22.70;50.90;;;;;;5063100;28;19960;-61
2022/07/07 02:16:08;;;;;;;;;;;22.70;51.00;;;;;;5061477;28;19925;-60
2022/07/07 02:18:36;;;;;;;;;;;22.70;51.10;;;;;;5041700;28;19932;-61
2022/07/07 02:21:03;;;;;;;;;;;22.70;51.10;;;;;;5047441;28;19924;-61
2022/07/07 02:23:29;;;;;;;;;;;22.70;51.10;;;;;;5047563;28;19951;-60
2022/07/07 02:25:56;;;;;;;;;;;22.70;51.20;;;;;;5046380;28;19920;-61
2022/07/07 02:28:23;;;;;;;;;;;22.70;51.20;;;;;;5044825;28;19963;-60
2022/07/07 02:30:52;;;;;;;;;;;22.70;51.20;;;;;;5061458;28;19921;-61
2022/07/07 02:33:18;;;;;;;;;;;22.70;51.30;;;;;;5042832;28;20659;-61
2022/07/07 02:35:45;;;;;;;;;;;22.70;51.30;;;;;;5044285;28;19928;-61
2022/07/07 02:38:12;;;;;;;;;;;22.70;51.40;;;;;;5043581;28;20010;-61
2022/07/07 02:40:41;;;;;;;;;;;22.70;51.40;;;;;;5043909;28;20125;-61
2022/07/07 02:43:12;;;;;;;;;;;22.70;51.40;;;;;;5045217;28;19920;-59
2022/07/07 02:45:39;;;;;;;;;;;22.70;51.40;;;;;;5046836;28;19935;-61
2022/07/07 02:48:08;;;;;;;;;;;22.70;51.50;;;;;;5044448;28;19924;-61
2022/07/07 02:50:35;;;;;;;;;;;22.70;51.50;;;;;;5060650;28;19920;-61
2022/07/07 02:53:01;;;;;;;;;;;22.70;51.50;;;;;;5061530;28;19924;-61
2022/07/07 02:55:28;;;;;;;;;;;22.70;51.50;;;;;;5044980;28;19966;-61
2022/07/07 02:57:55;;;;;;;;;;;22.70;51.60;;;;;;5062420;28;19974;-60
2022/07/07 03:00:21;;;;;;;;;;;22.70;52.20;;;;;;5061593;28;19920;-60
2022/07/07 03:02:48;;;;;;;;;;;22.70;51.70;;;;;;5044935;28;20007;-61
2022/07/07 03:05:16;;;;;;;;;;;22.70;51.80;;;;;;5058774;28;19921;-61
2022/07/07 03:07:43;;;;;;;;;;;22.70;51.80;;;;;;5040812;28;20255;-61
2022/07/07 03:10:10;;;;;;;;;;;22.70;51.80;;;;;;5058332;28;19978;-61
2022/07/07 03:12:37;;;;;;;;;;;22.70;51.80;;;;;;5062930;28;20032;-61
2022/07/07 03:15:03;;;;;;;;;;;22.70;51.90;;;;;;5048294;28;19983;-61
2022/07/07 03:17:33;;;;;;;;;;;22.70;51.90;;;;;;5041124;28;19969;-59
2022/07/07 03:20:00;;;;;;;;;;;22.70;51.90;;;;;;5060649;28;19956;-60
2022/07/07 03:22:28;;;;;;;;;;;22.70;51.90;;;;;;5060411;28;19982;-61
2022/07/07 03:24:55;;;;;;;;;;;22.70;51.90;;;;;;5061472;28;19994;-61
2022/07/07 03:27:22;;;;;;;;;;;22.70;51.90;;;;;;5060668;28;20391;-60
2022/07/07 03:29:49;;;;;;;;;;;22.70;51.90;;;;;;5062050;28;20361;-60
2022/07/07 03:32:15;;;;;;;;;;;22.70;52.00;;;;;;5063141;28;19983;-61
2022/07/07 03:34:42;;;;;;;;;;;22.70;52.60;;;;;;5066482;28;19921;-61
2022/07/07 03:37:09;;;;;;;;;;;22.70;52.00;;;;;;5044887;28;20365;-61
2022/07/07 03:39:37;;;;;;;;;;;22.70;52.00;;;;;;5061236;28;19966;-60
2022/07/07 03:42:04;;;;;;;;;;;22.70;52.10;;;;;;5049050;28;19925;-61
2022/07/07 03:44:30;;;;;;;;;;;22.70;52.10;;;;;;5043757;28;19931;-63
2022/07/07 03:46:57;;;;;;;;;;;22.70;52.10;;;;;;5066491;28;19994;-61
2022/07/07 03:49:24;;;;;;;;;;;22.70;52.10;;;;;;5065953;28;19920;-60
2022/07/07 03:51:51;;;;;;;;;;;22.70;52.20;;;;;;5063566;28;20041;-61
2022/07/07 03:54:18;;;;;;;;;;;22.70;52.10;;;;;;5065470;28;19933;-61
2022/07/07 03:56:46;;;;;;;;;;;22.70;52.10;;;;;;5065697;28;19928;-60
2022/07/07 03:59:12;;;;;;;;;;;22.70;52.20;;;;;;5060996;28;19960;-61
2022/07/07 04:01:44;;;;;;;;;;;22.70;52.20;;;;;;5061784;28;19994;-61
2022/07/07 04:04:11;;;;;;;;;;;22.70;52.20;;;;;;5047602;28;19972;-59
2022/07/07 04:06:38;;;;;;;;;;;22.70;52.20;;;;;;5063169;28;20641;-60
2022/07/07 04:09:04;;;;;;;;;;;22.70;52.20;;;;;;5044467;28;20425;-61
2022/07/07 04:11:31;;;;;;;;;;;22.70;52.30;;;;;;5042246;28;19931;-61
2022/07/07 04:13:59;;;;;;;;;;;22.70;52.30;;;;;;5065594;28;19966;-60
2022/07/07 04:16:28;;;;;;;;;;;22.70;52.30;;;;;;5047138;28;20463;-61
2022/07/07 04:18:55;;;;;;;;;;;22.70;52.40;;;;;;5066743;28;19967;-61
2022/07/07 04:21:22;;;;;;;;;;;22.70;52.30;;;;;;5065838;28;19959;-60
2022/07/07 04:23:49;;;;;;;;;;;22.70;52.30;;;;;;5059696;28;20018;-61
2022/07/07 04:26:16;;;;;;;;;;;22.70;52.30;;;;;;5046989;28;19933;-61
2022/07/07 04:28:43;;;;;;;;;;;22.70;52.40;;;;;;5064162;28;19979;-61
2022/07/07 04:31:11;;;;;;;;;;;22.70;52.40;;;;;;5059669;28;19978;-61
2022/07/07 04:33:37;;;;;;;;;;;22.70;52.40;;;;;;5067598;28;19921;-61
2022/07/07 04:36:04;;;;;;;;;;;22.70;52.50;;;;;;5063666;28;20273;-61
2022/07/07 04:38:31;;;;;;;;;;;22.70;52.50;;;;;;5063194;28;19986;-61
2022/07/07 04:40:58;;;;;;;;;;;22.70;52.50;;;;;;5060737;28;19974;-61
2022/07/07 04:43:24;;;;;;;;;;;22.70;52.50;;;;;;5061597;28;19931;-62
2022/07/07 04:45:51;;;;;;;;;;;22.70;52.50;;;;;;5062381;28;19920;-61
2022/07/07 04:48:19;;;;;;;;;;;22.70;52.60;;;;;;5050109;28;19920;-60
2022/07/07 04:50:46;;;;;;;;;;;22.70;52.60;;;;;;5061563;28;19981;-61
2022/07/07 04:53:13;;;;;;;;;;;22.70;52.70;;;;;;5047429;28;20250;-61
2022/07/07 04:55:39;;;;;;;;;;;22.70;52.60;;;;;;5061829;28;19920;-61
2022/07/07 04:58:06;;;;;;;;;;;22.70;52.70;;;;;;5052633;28;20010;-61
2022/07/07 05:00:33;;;;;;;;;;;22.70;52.70;;;;;;5037756;28;20015;-61
2022/07/07 05:03:00;;;;;;;;;;;22.70;52.70;;;;;;5037743;28;20019;-61
2022/07/07 05:05:28;;;;;;;;;;;22.70;52.80;;;;;;5053776;28;20332;-61
2022/07/07 05:07:55;;;;;;;;;;;22.70;52.70;;;;;;5046065;28;19972;-61
2022/07/07 05:10:21;;;;;;;;;;;22.70;52.80;;;;;;5062817;28;19925;-61
2022/07/07 05:12:48;;;;;;;;;;;22.70;52.80;;;;;;5067359;28;19928;-63
2022/07/07 05:15:15;;;;;;;;;;;22.70;52.40;;;;;;5048276;28;20366;-63
2022/07/07 05:17:42;;;;;;;;;;;22.70;52.90;;;;;;5053750;28;19920;-61
2022/07/07 05:20:09;;;;;;;;;;;22.70;52.90;;;;;;5036602;28;19932;-62
2022/07/07 05:22:38;;;;;;;;;;;22.70;52.90;;;;;;5048941;28;19929;-61
2022/07/07 05:25:05;;;;;;;;;;;22.70;52.90;;;;;;5067934;28;19930;-60
2022/07/07 05:27:32;;;;;;;;;;;22.70;53.40;;;;;;5062899;28;19967;-60
2022/07/07 05:29:58;;;;;;;;;;;22.70;53.00;;;;;;5067715;28;19920;-61
2022/07/07 05:32:25;;;;;;;;;;;22.70;53.10;;;;;;5065018;28;20323;-60
2022/07/07 05:34:52;;;;;;;;;;;22.70;53.20;;;;;;5056475;28;19921;-61
2022/07/07 05:37:19;;;;;;;;;;;22.70;53.20;;;;;;5043813;28;19994;-61
2022/07/07 05:39:47;;;;;;;;;;;22.70;53.20;;;;;;5051114;28;20117;-60
2022/07/07 05:42:14;;;;;;;;;;;22.70;53.30;;;;;;5067724;28;20332;-61
2022/07/07 05:44:41;;;;;;;;;;;22.70;53.30;;;;;;5061488;28;20034;-61
2022/07/07 05:47:08;;;;;;;;;;;22.70;53.40;;;;;;5039669;28;20010;-61
2022/07/07 05:49:35;;;;;;;;;;;22.70;53.40;;;;;;5045515;28;19974;-61
2022/07/07 05:52:01;;;;;;;;;;;22.70;53.40;;;;;;5035821;28;19975;-61
2022/07/07 05:54:28;;;;;;;;;;;22.70;53.50;;;;;;5040175;28;19978;-61
2022/07/07 05:56:57;;;;;;;;;;;22.70;53.50;;;;;;5047494;28;19928;-61
2022/07/07 05:59:23;;;;;;;;;;;22.70;53.50;;;;;;5046436;28;19921;-61
2022/07/07 06:01:50;;;;;;;;;;;22.70;53.50;;;;;;5049120;28;19963;-61
2022/07/07 06:04:17;;;;;;;;;;;22.70;53.60;;;;;;5031520;28;20230;-62
2022/07/07 06:06:43;;;;;;;;;;;22.70;53.50;;;;;;5032050;28;20023;-61
2022/07/07 06:09:10;;;;;;;;;;;22.70;53.60;;;;;;5056678;28;20290;-62
2022/07/07 06:11:37;;;;;;;;;;;22.70;53.60;;;;;;5049977;28;20327;-61
2022/07/07 06:14:05;;;;;;;;;;;22.70;53.60;;;;;;5049084;28;19920;-61
2022/07/07 06:16:41;;;;;;;;;;;22.70;53.60;;;;;;5049328;28;19998;-61
2022/07/07 06:19:08;;;;;;;;;;;22.70;53.60;;;;;;5052974;28;19973;-61
2022/07/07 06:21:34;;;;;;;;;;;22.70;53.60;;;;;;5049248;28;19925;-61
2022/07/07 06:24:01;;;;;;;;;;;22.70;53.70;;;;;;5051058;28;20327;-61
2022/07/07 06:26:28;;;;;;;;;;;22.70;53.60;;;;;;5069162;28;19964;-62
2022/07/07 06:28:55;;;;;;;;;;;22.70;53.70;;;;;;5048774;28;19933;-60
2022/07/07 06:31:23;;;;;;;;;;;22.70;53.70;;;;;;5047354;28;20348;-60
2022/07/07 06:33:49;;;;;;;;;;;22.70;53.70;;;;;;5049226;28;20373;-61
2022/07/07 06:36:16;;;;;;;;;;;22.70;53.70;;;;;;5052397;28;19933;-61
2022/07/07 06:38:43;;;;;;;;;;;22.70;53.70;;;;;;5056319;28;19960;-62
2022/07/07 06:41:10;;;;;;;;;;;22.70;53.80;;;;;;5060392;28;19966;-61
2022/07/07 06:43:37;;;;;;;;;;;22.70;53.80;;;;;;5064351;28;19936;-61
2022/07/07 06:46:04;;;;;;;;;;;22.70;53.80;;;;;;5078313;28;20324;-61
2022/07/07 06:48:32;;;;;;;;;;;22.70;53.80;;;;;;5063814;28;19939;-60
2022/07/07 06:50:59;;;;;;;;;;;22.70;53.80;;;;;;5079607;28;19920;-61
2022/07/07 06:53:26;;;;;;;;;;;22.70;53.80;;;;;;5055621;28;20001;-61
2022/07/07 06:55:52;;;;;;;;;;;22.70;53.90;;;;;;5060362;28;19928;-60
2022/07/07 06:58:19;;;;;;;;;;;22.70;53.90;;;;;;5079533;28;20011;-61
2022/07/07 07:00:46;;;;;;;;;;;22.70;53.90;;;;;;5058267;28;19925;-61
2022/07/07 07:03:13;;;;;;;;;;;22.70;53.90;;;;;;5063979;28;19994;-62
2022/07/07 07:05:41;;;;;;;;;;;22.70;54.00;;;;;;5055122;28;20297;-60
2022/07/07 07:08:07;;;;;;;;;;;22.70;54.00;;;;;;5046181;28;19972;-61
2022/07/07 07:10:34;;;;;;;;;;;22.70;54.00;;;;;;5067956;28;20001;-61
2022/07/07 07:13:01;;;;;;;;;;;22.70;54.10;;;;;;5045347;28;20956;-60
2022/07/07 07:15:28;;;;;;;;;;;22.80;54.20;;;;;;5073499;28;19936;-61
2022/07/07 07:17:54;;;;;;;;;;;22.70;54.10;;;;;;5061027;28;20050;-61
2022/07/07 07:20:21;;;;;;;;;;;22.70;54.20;;;;;;5070774;28;19930;-62
2022/07/07 07:22:50;;;;;;;;;;;22.70;54.20;;;;;;5043387;28;20369;-61
2022/07/07 07:25:17;;;;;;;;;;;22.70;54.20;;;;;;5067419;28;19921;-61
2022/07/07 07:27:44;;;;;;;;;;;22.70;54.30;;;;;;5068163;28;19928;-61
2022/07/07 07:30:12;;;;;;;;;;;22.70;54.30;;;;;;5079394;28;19924;-61
2022/07/07 07:32:38;;;;;;;;;;;22.70;54.30;;;;;;5051196;28;20388;-61
2022/07/07 07:35:05;;;;;;;;;;;22.70;54.30;;;;;;5065795;28;19967;-61
2022/07/07 07:37:32;;;;;;;;;;;22.70;54.30;;;;;;5060399;28;19968;-61
2022/07/07 07:40:00;;;;;;;;;;;22.70;54.30;;;;;;5061349;28;19955;-61
2022/07/07 07:42:26;;;;;;;;;;;22.70;54.30;;;;;;5070106;28;19929;-61
2022/07/07 07:45:11;;;;;;;;;;;22.70;54.40;;;;;;5047558;28;19921;-61
2022/07/07 07:47:38;;;;;;;;;;;22.70;54.40;;;;;;5055138;28;19924;-61
2022/07/07 07:50:06;;;;;;;;;;;22.70;54.40;;;;;;5074051;28;19924;-61
2022/07/07 07:52:32;;;;;;;;;;;22.70;54.50;;;;;;5060016;28;19920;-60
2022/07/07 07:55:01;;;;;;;;;;;22.70;54.40;;;;;;5067730;28;19978;-61
2022/07/07 07:57:28;;;;;;;;;;;22.70;54.50;;;;;;5054011;28;19921;-61
2022/07/07 07:59:55;;;;;;;;;;;22.70;54.50;;;;;;5065963;28;20011;-61
2022/07/07 08:02:22;;;;;;;;;;;22.70;54.50;;;;;;5084664;28;20385;-61
2022/07/07 08:04:48;;;;;;;;;;;22.70;54.50;;;;;;5071281;28;19927;-61
2022/07/07 08:07:15;;;;;;;;;;;22.70;54.60;;;;;;5065055;28;19986;-61
2022/07/07 08:09:42;;;;;;;;;;;22.70;54.70;;;;;;5070214;28;20380;-61
2022/07/07 08:12:10;;;;;;;;;;;22.70;54.70;;;;;;5083893;28;19981;-61
2022/07/07 08:14:37;;;;;;;;;;;22.70;54.70;;;;;;5080304;28;19928;-61
2022/07/07 08:17:04;;;;;;;;;;;22.70;54.80;;;;;;5055329;28;19955;-61
2022/07/07 08:19:30;;;;;;;;;;;22.70;54.80;;;;;;5062645;28;19974;-61
2022/07/07 08:21:57;;;;;;;;;;;22.70;54.70;;;;;;5066641;28;20018;-61
2022/07/07 08:24:24;;;;;;;;;;;22.70;54.60;;;;;;5084259;28;19949;-60
2022/07/07 08:26:50;;;;;;;;;;;22.70;54.60;;;;;;5043442;28;20010;-61
2022/07/07 08:29:18;;;;;;;;;;;22.70;54.50;;;;;;5063672;28;20384;-61
2022/07/07 08:31:45;;;;;;;;;;;22.70;54.50;;;;;;5068186;28;20027;-61
2022/07/07 08:34:12;;;;;;;;;;;22.70;54.50;;;;;;5071650;28;20043;-61
2022/07/07 08:36:38;;;;;;;;;;;22.70;54.50;;;;;;5080804;28;19924;-61
2022/07/07 08:39:05;;;;;;;;;;;22.70;54.50;;;;;;5050890;28;20263;-61
2022/07/07 08:41:32;;;;;;;;;;;22.70;54.50;;;;;;5049858;28;19920;-61
2022/07/07 08:43:59;;;;;;;;;;;22.70;54.50;;;;;;5080617;28;19931;-61
2022/07/07 08:46:28;;;;;;;;;;;22.70;54.50;;;;;;5047939;28;19927;-61
2022/07/07 08:48:54;;;;;;;;;;;22.70;54.50;;;;;;5063375;28;20386;-61
2022/07/07 08:51:22;;;;;;;;;;;22.70;54.50;;;;;;5065167;28;19974;-60
2022/07/07 08:53:48;;;;;;;;;;;22.70;54.50;;;;;;5059891;28;19928;-61
2022/07/07 08:56:15;;;;;;;;;;;22.70;54.50;;;;;;5055479;28;20022;-61
2022/07/07 08:58:42;;;;;;;;;;;22.70;54.50;;;;;;5057677;28;20020;-61
2022/07/07 09:01:08;;;;;;;;;;;22.70;54.50;;;;;;5036896;28;20074;-61
2022/07/07 09:03:36;;;;;;;;;;;22.70;54.50;;;;;;5052342;28;20321;-61
2022/07/07 09:06:03;;;;;;;;;;;22.70;54.50;;;;;;5082493;28;19981;-61
2022/07/07 09:08:30;;;;;;;;;;;22.70;54.50;;;;;;5059400;28;19920;-61
2022/07/07 09:10:57;;;;;;;;;;;22.70;54.50;;;;;;5058065;28;20269;-61
2022/07/07 09:13:25;;;;;;;;;;;22.70;54.50;;;;;;5064223;28;20345;-61
2022/07/07 09:15:52;;;;;;;;;;;22.70;54.70;;;;;;5063369;28;19920;-60
2022/07/07 09:18:28;;;;;;;;;;;22.70;54.60;;;;;;5069180;28;20338;-61
2022/07/07 09:20:56;;;;;;;;;;;22.70;54.60;;;;;;5075856;28;20446;-60
2022/07/07 09:23:23;;;;;;;;;;;22.70;54.50;;;;;;5056282;28;20321;-61
2022/07/07 09:25:50;;;;;;;;;;;22.70;54.50;;;;;;5078831;28;19963;-61
2022/07/07 09:28:16;;;;;;;;;;;22.70;54.50;;;;;;5081617;28;19920;-60
2022/07/07 09:30:44;;;;;;;;;;;22.70;54.50;;;;;;5043448;28;20118;-61
2022/07/07 09:33:11;;;;;;;;;;;22.70;54.50;;;;;;5061569;28;20011;-60
2022/07/07 09:38:24;;;;;;;;;;;22.70;54.50;;;;;;5054648;28;19986;-61
2022/07/07 09:40:52;;;;;;;;;;;22.70;54.50;;;;;;5049485;28;19930;-60
2022/07/07 09:43:18;;;;;;;;;;;22.70;54.50;;;;;;5049626;28;19928;-60
2022/07/07 09:45:47;;;;;;;;;;;22.70;54.50;;;;;;5050252;28;20358;-61
2022/07/07 09:48:14;;;;;;;;;;;22.70;54.60;;;;;;5056672;28;19952;-60
2022/07/07 09:50:40;;;;;;;;;;;22.70;54.60;;;;;;5054549;28;19920;-60
2022/07/07 09:53:07;;;;;;;;;;;22.70;54.50;;;;;;5048300;28;20006;-61
2022/07/07 09:55:35;;;;;;;;;;;22.70;54.50;;;;;;5062424;28;19927;-59
2022/07/07 09:58:02;;;;;;;;;;;22.70;55.00;;;;;;5069850;28;20329;-60
2022/07/07 10:00:29;;;;;;;;;;;22.70;54.30;;;;;;5068415;28;19924;-60
2022/07/07 10:02:56;;;;;;;;;;;22.70;54.30;;;;;;5045663;28;19920;-61
2022/07/07 10:05:23;;;;;;;;;;;22.70;54.40;;;;;;5043601;28;19974;-61
2022/07/07 10:07:49;;;;;;;;;;;22.70;54.30;;;;;;5054197;28;19919;-61
2022/07/07 10:10:16;;;;;;;;;;;22.70;54.20;;;;;;5079798;28;19928;-61
2022/07/07 10:12:45;;;;;;;;;;;22.70;54.10;;;;;;5056813;28;20539;-61
2022/07/07 10:15:12;;;;;;;;;;;22.70;54.00;;;;;;5042661;28;20226;-61
2022/07/07 10:17:39;;;;;;;;;;;22.70;54.00;;;;;;5067436;28;19928;-61
2022/07/07 10:20:06;;;;;;;;;;;22.70;53.90;;;;;;5051251;28;19973;-61
2022/07/07 10:22:32;;;;;;;;;;;22.70;53.90;;;;;;5072378;28;19926;-60
2022/07/07 10:25:00;;;;;;;;;;;22.70;53.80;;;;;;5058842;28;20041;-61
2022/07/07 10:27:27;;;;;;;;;;;22.70;53.80;;;;;;5064232;28;19921;-61
2022/07/07 10:29:55;;;;;;;;;;;22.70;53.80;;;;;;5067576;28;19968;-61
2022/07/07 10:32:29;;;;;;;;;;;22.70;53.80;;;;;;5057485;28;19928;-61
2022/07/07 10:34:57;;;;;;;;;;;22.70;53.80;;;;;;5043704;28;19974;-61
2022/07/07 10:37:23;;;;;;;;;;;22.70;53.80;;;;;;5074979;28;19924;-61
2022/07/07 10:39:50;;;;;;;;;;;22.70;53.80;;;;;;5062849;28;19927;-60
2022/07/07 10:42:25;;;;;;;;;;;22.70;53.70;;;;;;5066913;28;20342;-61
2022/07/07 10:44:53;;;;;;;;;;;22.70;53.70;;;;;;5066588;28;20354;-61
2022/07/07 10:47:31;;;;;;;;;;;22.70;53.60;;;;;;5056286;28;20337;-61
2022/07/07 10:49:57;;;;;;;;;;;22.70;53.50;;;;;;5042946;28;19928;-61
2022/07/07 10:52:25;;;;;;;;;;;22.70;53.40;;;;;;5068492;28;19974;-61
2022/07/07 10:54:52;;;;;;;;;;;22.70;53.40;;;;;;5069646;28;19925;-62
2022/07/07 10:57:19;;;;;;;;;;;22.70;53.40;;;;;;5067517;28;19967;-61
2022/07/07 11:00:18;;;;;;;;;;;22.70;53.30;;;;;;5057738;28;19928;-61
2022/07/07 11:02:48;;;;;;;;;;;22.70;53.30;;;;;;4978851;28;19976;-60
2022/07/07 11:05:27;;;;;;;;;;;22.70;53.20;;;;;;5054475;28;20029;-61
2022/07/07 11:08:07;;;;;;;;;;;22.70;53.20;;;;;;5047245;28;19926;-61
2022/07/07 11:10:52;;;;;;;;;;;22.70;53.10;;;;;;5084440;28;19951;-61
2022/07/07 11:13:21;;;;;;;;;;;22.70;53.00;;;;;;5047681;28;20007;-61
2022/07/07 11:15:49;;;;;;;;;;;22.70;53.00;;;;;;5045461;28;19935;-61
2022/07/07 11:18:18;;;;;;;;;;;22.70;53.00;;;;;;5064779;28;19925;-61
2022/07/07 11:20:57;;;;;;;;;;;22.70;52.90;;;;;;5071246;28;19927;-61
2022/07/07 11:23:26;;;;;;;;;;;22.70;52.80;;;;;;5059014;28;20431;-61
2022/07/07 11:25:55;;;;;;;;;;;22.70;52.80;;;;;;5071175;28;20012;-60
2022/07/07 11:28:23;;;;;;;;;;;22.70;52.80;;;;;;5063586;28;20353;-61
2022/07/07 11:30:50;;;;;;;;;;;22.70;52.70;;;;;;5047320;28;19925;-60
2022/07/07 11:33:18;;;;;;;;;;;22.70;52.70;;;;;;5078808;28;20341;-60
2022/07/07 11:35:44;;;;;;;;;;;22.70;52.70;;;;;;5060598;28;20225;-61
2022/07/07 11:38:12;;;;;;;;;;;22.70;52.70;;;;;;5044375;28;20026;-61
2022/07/07 11:40:39;;;;;;;;;;;22.70;52.70;;;;;;5053894;28;20370;-61
2022/07/07 11:43:06;;;;;;;;;;;22.70;52.80;;;;;;5048863;28;19928;-61
2022/07/07 11:45:33;;;;;;;;;;;22.60;52.60;;;;;;5051124;28;19963;-61
2022/07/07 11:48:00;;;;;;;;;;;22.70;52.70;;;;;;5058241;28;19920;-61
2022/07/07 11:50:29;;;;;;;;;;;22.60;52.70;;;;;;5061466;28;19920;-61
2022/07/07 11:52:56;;;;;;;;;;;22.70;52.80;;;;;;5039678;28;19939;-61
2022/07/07 11:55:23;;;;;;;;;;;22.70;52.80;;;;;;5066935;28;19921;-60
2022/07/07 11:57:50;;;;;;;;;;;22.70;52.80;;;;;;5046469;28;20254;-61
2022/07/07 12:00:17;;;;;;;;;;;22.60;52.70;;;;;;5061045;28;19962;-61
2022/07/07 12:02:44;;;;;;;;;;;22.70;52.80;;;;;;5063920;28;20250;-61
2022/07/07 12:05:11;;;;;;;;;;;22.70;52.90;;;;;;5060934;28;19973;-61
2022/07/07 12:07:39;;;;;;;;;;;22.70;52.90;;;;;;5055662;28;20020;-62
2022/07/07 12:10:07;;;;;;;;;;;22.60;52.80;;;;;;5053365;28;20285;-61
2022/07/07 12:12:33;;;;;;;;;;;22.70;53.00;;;;;;5070103;28;20308;-61
2022/07/07 12:15:00;;;;;;;;;;;22.70;53.00;;;;;;5041163;28;20007;-60
2022/07/07 12:17:36;;;;;;;;;;;22.70;53.00;;;;;;5066117;28;19920;-61
2022/07/07 12:20:03;;;;;;;;;;;22.70;53.00;;;;;;5061692;28;19924;-61
2022/07/07 12:22:34;;;;;;;;;;;22.70;53.10;;;;;;5050560;28;19971;-61
2022/07/07 12:25:02;;;;;;;;;;;22.70;53.10;;;;;;5045229;28;19922;-61
2022/07/07 12:27:29;;;;;;;;;;;22.70;53.10;;;;;;5063856;28;19931;-61
2022/07/07 12:29:59;;;;;;;;;;;22.70;53.20;;;;;;5061841;28;20374;-61
2022/07/07 12:32:26;;;;;;;;;;;22.70;53.10;;;;;;5057612;28;20026;-61
2022/07/07 12:34:52;;;;;;;;;;;22.70;53.00;;;;;;5051495;28;20279;-61
2022/07/07 12:37:19;;;;;;;;;;;22.60;52.80;;;;;;5076868;28;19963;-61
2022/07/07 12:39:50;;;;;;;;;;;22.60;52.80;;;;;;5056170;28;19920;-61
2022/07/07 12:42:25;;;;;;;;;;;22.60;52.80;;;;;;5045999;28;19924;-61
2022/07/07 12:44:52;;;;;;;;;;;22.60;52.80;;;;;;5034766;28;19927;-61
2022/07/07 12:47:18;;;;;;;;;;;22.60;52.80;;;;;;5054414;28;21022;-61
2022/07/07 12:49:55;;;;;;;;;;;22.60;52.80;;;;;;5057548;28;20017;-61
2022/07/07 12:52:21;;;;;;;;;;;22.60;52.70;;;;;;5055646;28;19956;-61
2022/07/07 12:54:48;;;;;;;;;;;22.60;52.70;;;;;;5069671;28;19998;-61
2022/07/07 12:57:15;;;;;;;;;;;22.60;52.60;;;;;;5057368;28;19967;-61
2022/07/07 12:59:45;;;;;;;;;;;22.60;52.50;;;;;;5058070;28;19926;-61
2022/07/07 13:02:12;;;;;;;;;;;22.60;52.40;;;;;;5054416;28;19925;-61
2022/07/07 13:04:40;;;;;;;;;;;22.60;52.30;;;;;;5040254;28;20414;-61
2022/07/07 13:07:07;;;;;;;;;;;22.60;52.20;;;;;;5059786;28;19986;-61
2022/07/07 13:09:33;;;;;;;;;;;22.60;52.00;;;;;;5040833;28;19963;-61
2022/07/07 13:12:00;;;;;;;;;;;22.60;51.90;;;;;;5049593;28;20394;-61
2022/07/07 13:14:28;;;;;;;;;;;22.60;51.70;;;;;;5041314;28;19981;-61
2022/07/07 13:16:56;;;;;;;;;;;22.60;51.60;;;;;;5062960;28;19921;-61
2022/07/07 13:19:23;;;;;;;;;;;22.60;51.40;;;;;;5059700;28;19921;-61
2022/07/07 13:21:49;;;;;;;;;;;22.60;51.30;;;;;;5048651;28;19920;-61
2022/07/07 13:24:16;;;;;;;;;;;22.60;51.20;;;;;;5043403;28;19971;-61
2022/07/07 13:26:43;;;;;;;;;;;22.50;50.90;;;;;;5042843;28;19990;-61
2022/07/07 13:29:09;;;;;;;;;;;22.50;50.80;;;;;;5074337;28;19980;-61
2022/07/07 13:31:38;;;;;;;;;;;22.50;50.70;;;;;;5067904;28;20023;-61
2022/07/07 13:34:06;;;;;;;;;;;22.50;50.50;;;;;;5052076;28;19925;-61
2022/07/07 13:36:33;;;;;;;;;;;22.50;50.50;;;;;;5034540;28;19974;-61
2022/07/07 13:39:00;;;;;;;;;;;22.50;50.40;;;;;;5076646;28;19980;-61
2022/07/07 13:41:26;;;;;;;;;;;22.50;50.30;;;;;;5049492;28;19982;-62
2022/07/07 13:43:53;;;;;;;;;;;22.50;50.30;;;;;;5074853;28;19971;-61
2022/07/07 13:46:20;;;;;;;;;;;22.50;50.20;;;;;;5054763;28;19929;-61
2022/07/07 13:48:46;;;;;;;;;;;22.50;50.10;;;;;;5051800;28;20390;-61
2022/07/07 13:51:15;;;;;;;;;;;22.50;50.00;;;;;;5049183;28;19963;-61
2022/07/07 13:53:41;;;;;;;;;;;22.50;50.00;;;;;;5041252;28;19928;-61
2022/07/07 13:56:08;;;;;;;;;;;22.50;49.90;;;;;;5054866;28;20332;-61
2022/07/07 13:58:35;;;;;;;;;;;22.50;49.80;;;;;;5054915;28;19972;-61
2022/07/07 14:01:02;;;;;;;;;;;22.40;49.70;;;;;;5045441;28;19925;-61
2022/07/07 14:03:29;;;;;;;;;;;22.40;49.60;;;;;;5067146;28;19925;-61
2022/07/07 14:05:56;;;;;;;;;;;22.50;49.60;;;;;;5054901;28;19928;-61
2022/07/07 14:08:24;;;;;;;;;;;22.50;49.60;;;;;;5061376;28;19921;-62
2022/07/07 14:10:50;;;;;;;;;;;22.40;49.50;;;;;;5051928;28;19974;-61
2022/07/07 14:13:17;;;;;;;;;;;22.40;49.40;;;;;;5045140;28;19944;-61
2022/07/07 14:15:46;;;;;;;;;;;22.40;49.20;;;;;;5058774;28;20266;-61
2022/07/07 14:18:13;;;;;;;;;;;22.40;49.10;;;;;;5052350;28;19920;-62
2022/07/07 14:20:39;;;;;;;;;;;22.40;49.00;;;;;;5050451;28;19932;-61
2022/07/07 14:23:06;;;;;;;;;;;22.40;48.80;;;;;;5052052;28;20268;-61